Time;durP1;ratioP1;P1;durP2;ratioP2;P2;SDS_P1;SDS_P2;PMS_P1;PMS_P2;Temp;Humidity;BMP_temperature;BMP_pressure;BME280_temperature;BME280_humidity;BME280_pressure;Samples;Min_cycle;Max_cycle;Signal;HPM_P1;HPM_P2
2022/10/24 00:01:30;;;;;;;4.80;1.03;;;16.10;99.90;;;;;;5091294;28;20187;-66
2022/10/24 00:03:57;;;;;;;5.83;1.10;;;16.10;99.90;;;;;;5092110;28;20184;-66
2022/10/24 00:06:23;;;;;;;6.33;1.20;;;16.00;99.90;;;;;;5091654;28;20212;-66
2022/10/24 00:08:48;;;;;;;10.40;1.00;;;16.00;99.90;;;;;;5087538;28;21226;-65
2022/10/24 00:11:22;;;;;;;3.20;0.93;;;15.90;99.90;;;;;;5090812;28;20539;-65
2022/10/24 00:13:49;;;;;;;3.07;1.10;;;15.90;99.90;;;;;;5089674;28;20164;-66
2022/10/24 00:16:14;;;;;;;4.90;1.27;;;15.90;99.90;;;;;;5087222;28;20418;-65
2022/10/24 00:18:40;;;;;;;3.40;0.93;;;15.90;99.90;;;;;;5091552;28;20425;-66
2022/10/24 00:21:06;;;;;;;12.17;1.10;;;15.90;99.90;;;;;;5091590;28;20175;-66
2022/10/24 00:23:32;;;;;;;4.03;1.30;;;15.90;99.90;;;;;;5089833;28;20414;-66
2022/10/24 00:26:02;;;;;;;3.00;0.90;;;15.90;99.90;;;;;;5091722;28;20551;-66
2022/10/24 00:28:29;;;;;;;2.33;0.87;;;15.90;99.90;;;;;;5091039;28;20203;-65
2022/10/24 00:30:55;;;;;;;3.97;0.67;;;15.90;99.90;;;;;;5091852;28;20483;-65
2022/10/24 00:33:21;;;;;;;3.83;0.93;;;15.80;99.90;;;;;;5091169;28;20442;-64
2022/10/24 00:35:47;;;;;;;4.47;1.27;;;15.80;99.90;;;;;;5091522;28;20192;-64
2022/10/24 00:38:12;;;;;;;3.47;1.57;;;15.80;99.90;;;;;;5091526;28;20195;-65
2022/10/24 00:40:38;;;;;;;1.50;0.83;;;15.70;99.90;;;;;;5091720;28;20187;-65
2022/10/24 00:43:12;;;;;;;2.07;1.13;;;15.70;99.90;;;;;;5090198;28;20343;-64
2022/10/24 00:45:44;;;;;;;10.97;1.57;;;15.70;99.90;;;;;;5089245;28;20420;-65
2022/10/24 00:48:45;;;;;;;2.47;1.00;;;15.70;99.90;;;;;;5091105;28;21066;-65
2022/10/24 00:51:32;;;;;;;2.20;1.10;;;15.80;99.90;;;;;;5041227;28;20483;-65
2022/10/24 00:54:07;;;;;;;4.13;1.63;;;15.80;99.90;;;;;;5091653;28;20411;-65
2022/10/24 00:57:03;;;;;;;7.37;1.50;;;15.80;99.90;;;;;;5072716;28;20434;-65
2022/10/24 00:59:30;;;;;;;4.33;0.87;;;15.80;99.90;;;;;;5089549;28;20434;-66
2022/10/24 01:01:55;;;;;;;6.40;1.30;;;15.80;99.90;;;;;;5082459;28;20438;-65
2022/10/24 01:04:21;;;;;;;8.00;1.80;;;15.80;99.90;;;;;;5082825;28;20911;-66
2022/10/24 01:06:54;;;;;;;2.27;1.23;;;15.90;99.90;;;;;;5091043;28;20192;-66
2022/10/24 01:09:50;;;;;;;7.07;1.73;;;15.90;99.90;;;;;;5091465;28;20168;-65
2022/10/24 01:12:34;;;;;;;1.90;1.07;;;15.90;99.90;;;;;;5090063;28;20410;-66
2022/10/24 01:14:59;;;;;;;4.40;1.20;;;15.90;99.90;;;;;;5091689;28;20418;-65
2022/10/24 01:17:43;;;;;;;2.47;1.40;;;16.00;99.90;;;;;;5090825;28;20410;-65
2022/10/24 01:20:32;;;;;;;6.67;1.07;;;16.00;99.90;;;;;;5089964;28;20180;-65
2022/10/24 01:23:04;;;;;;;9.90;0.93;;;16.00;99.90;;;;;;5083818;28;20772;-66
2022/10/24 01:25:37;;;;;;;2.37;0.90;;;16.10;99.90;;;;;;5089489;28;20458;-64
2022/10/24 01:28:10;;;;;;;5.33;1.00;;;16.20;99.90;;;;;;5093930;28;20495;-65
2022/10/24 01:30:51;;;;;;;5.17;1.37;;;16.20;99.90;;;;;;5094999;28;20414;-65
2022/10/24 01:33:33;;;;;;;5.40;1.07;;;16.10;99.90;;;;;;5094314;28;20414;-66
2022/10/24 01:36:08;;;;;;;5.93;1.93;;;16.00;99.90;;;;;;5088199;28;20409;-65
2022/10/24 01:38:36;;;;;;;3.20;1.10;;;16.00;99.90;;;;;;5076325;28;20406;-65
2022/10/24 01:41:15;;;;;;;3.47;0.80;;;15.90;99.90;;;;;;5094488;28;20417;-65
2022/10/24 01:43:47;;;;;;;2.53;1.37;;;15.90;99.90;;;;;;5092254;28;20414;-66
2022/10/24 01:46:26;;;;;;;3.97;1.00;;;15.90;99.90;;;;;;5089238;28;20409;-66
2022/10/24 01:48:59;;;;;;;5.43;1.57;;;15.90;99.90;;;;;;5094421;28;20410;-65
2022/10/24 01:51:27;;;;;;;4.43;1.53;;;15.90;99.90;;;;;;5094442;28;20405;-66
2022/10/24 01:53:54;;;;;;;5.97;1.53;;;15.90;99.90;;;;;;5094076;28;20418;-66
2022/10/24 01:56:20;;;;;;;22.90;1.93;;;16.20;99.90;;;;;;5094386;28;20411;-66
2022/10/24 01:58:45;;;;;;;7.07;1.50;;;16.10;99.90;;;;;;5093279;28;20467;-66
2022/10/24 02:01:17;;;;;;;5.27;2.03;;;16.10;99.90;;;;;;5094435;28;20188;-66
2022/10/24 02:03:51;;;;;;;2.40;1.33;;;16.10;99.90;;;;;;5092145;28;20188;-65
2022/10/24 02:06:33;;;;;;;7.20;1.70;;;16.20;99.90;;;;;;5076145;28;20495;-66
2022/10/24 02:09:05;;;;;;;3.33;1.00;;;16.20;99.90;;;;;;5092100;28;20414;-66
2022/10/24 02:11:34;;;;;;;2.07;0.87;;;16.30;99.90;;;;;;5092761;28;20418;-66
2022/10/24 02:14:12;;;;;;;4.43;1.80;;;16.30;99.90;;;;;;5093360;28;20419;-65
2022/10/24 02:16:39;;;;;;;12.00;3.57;;;16.30;99.90;;;;;;5090477;28;20422;-65
2022/10/24 02:19:05;;;;;;;3.77;1.30;;;16.40;99.90;;;;;;5085506;28;20811;-65
2022/10/24 02:21:44;;;;;;;3.23;1.53;;;16.40;99.90;;;;;;5093212;28;20905;-66
2022/10/24 02:24:20;;;;;;;9.10;1.90;;;16.40;99.90;;;;;;5092716;28;20180;-66
2022/10/24 02:27:12;;;;;;;2.03;1.07;;;16.30;99.90;;;;;;5093159;28;20953;-66
2022/10/24 02:29:45;;;;;;;3.60;1.60;;;16.30;99.90;;;;;;5090503;28;20417;-64
2022/10/24 02:32:17;;;;;;;3.53;1.30;;;16.30;99.90;;;;;;5093224;28;20418;-65
2022/10/24 02:34:43;;;;;;;21.87;2.23;;;16.20;99.90;;;;;;5093605;28;20890;-65
2022/10/24 02:37:11;;;;;;;2.97;1.30;;;16.10;99.90;;;;;;5092590;28;20957;-64
2022/10/24 02:39:39;;;;;;;9.07;2.30;;;16.10;99.90;;;;;;5093526;28;20455;-64
2022/10/24 02:42:07;;;;;;;7.63;2.33;;;16.00;99.90;;;;;;5091094;28;20426;-65
2022/10/24 02:44:33;;;;;;;11.57;2.07;;;16.00;99.90;;;;;;5086060;28;20428;-65
2022/10/24 02:47:03;;;;;;;1.83;0.90;;;15.80;99.90;;;;;;5090722;28;20516;-64
2022/10/24 02:49:28;;;;;;;5.57;1.93;;;15.80;99.90;;;;;;5093396;28;20894;-64
2022/10/24 02:51:54;;;;;;;4.03;1.57;;;15.80;99.90;;;;;;5086839;28;20455;-65
2022/10/24 02:54:20;;;;;;;7.13;1.80;;;15.70;99.90;;;;;;5092881;28;20259;-64
2022/10/24 02:56:57;;;;;;;7.93;2.30;;;15.70;99.90;;;;;;5092897;28;20494;-64
2022/10/24 02:59:22;;;;;;;7.00;1.83;;;15.70;99.90;;;;;;5081214;28;20168;-64
2022/10/24 03:01:48;;;;;;;2.10;0.93;;;15.70;99.90;;;;;;5092499;28;20949;-64
2022/10/24 03:04:14;;;;;;;4.93;1.60;;;15.80;99.90;;;;;;5093225;28;20259;-65
2022/10/24 03:06:41;;;;;;;4.67;1.37;;;15.80;99.90;;;;;;5092683;28;20546;-65
2022/10/24 03:09:06;;;;;;;12.17;2.20;;;15.80;99.90;;;;;;5092789;28;20606;-64
2022/10/24 03:11:32;;;;;;;5.10;1.70;;;15.80;99.90;;;;;;5092106;28;20438;-64
2022/10/24 03:13:58;;;;;;;6.63;1.60;;;15.80;99.90;;;;;;5091969;28;20205;-64
2022/10/24 03:16:24;;;;;;;6.17;1.43;;;15.70;99.90;;;;;;5092734;28;20205;-64
2022/10/24 03:18:50;;;;;;;2.23;1.07;;;15.90;99.90;;;;;;5092662;28;20177;-65
2022/10/24 03:21:15;;;;;;;4.00;1.50;;;15.80;99.90;;;;;;5073698;28;20419;-65
2022/10/24 03:23:41;;;;;;;10.53;1.90;;;15.80;99.90;;;;;;5090810;28;20188;-66
2022/10/24 03:26:07;;;;;;;15.80;3.37;;;15.80;99.90;;;;;;5092490;28;20253;-66
2022/10/24 03:28:32;;;;;;;6.33;2.00;;;15.80;99.90;;;;;;5092230;28;20279;-65
2022/10/24 03:30:58;;;;;;;15.80;1.97;;;15.80;99.90;;;;;;5085361;28;20173;-65
2022/10/24 03:33:23;;;;;;;2.07;1.07;;;15.70;99.90;;;;;;5080076;28;20205;-65
2022/10/24 03:35:54;;;;;;;8.87;1.70;;;15.70;99.90;;;;;;5086497;28;20180;-65
2022/10/24 03:38:21;;;;;;;12.00;1.67;;;15.70;99.90;;;;;;5092268;28;20826;-65
2022/10/24 03:40:47;;;;;;;2.57;1.20;;;15.80;99.90;;;;;;5092327;28;20890;-66
2022/10/24 03:43:13;;;;;;;6.50;1.70;;;15.60;99.90;;;;;;5091087;28;20445;-65
2022/10/24 03:45:38;;;;;;;4.07;1.50;;;15.60;99.90;;;;;;5081149;28;20184;-65
2022/10/24 03:48:05;;;;;;;4.67;1.20;;;15.60;99.90;;;;;;5091864;28;20200;-65
2022/10/24 03:50:31;;;;;;;2.37;1.17;;;15.60;99.90;;;;;;5090542;28;20584;-65
2022/10/24 03:52:57;;;;;;;2.63;1.30;;;15.60;99.90;;;;;;5087638;28;20467;-65
2022/10/24 03:55:23;;;;;;;2.47;1.37;;;15.70;99.90;;;;;;5091957;28;20406;-66
2022/10/24 03:57:48;;;;;;;4.17;2.10;;;15.70;99.90;;;;;;5091613;28;20241;-66
2022/10/24 04:00:14;;;;;;;7.03;1.80;;;15.70;99.90;;;;;;5092268;28;20179;-66
2022/10/24 04:02:40;;;;;;;3.30;1.37;;;15.70;99.90;;;;;;5091360;28;20184;-65
2022/10/24 04:05:06;;;;;;;5.00;1.90;;;15.80;99.90;;;;;;5091965;28;20584;-66
2022/10/24 04:07:32;;;;;;;4.83;1.30;;;15.80;99.90;;;;;;5073446;28;20204;-66
2022/10/24 04:09:58;;;;;;;3.40;1.53;;;15.70;99.90;;;;;;5092148;28;20531;-66
2022/10/24 04:12:24;;;;;;;4.13;1.87;;;15.70;99.90;;;;;;5090926;28;20447;-66
2022/10/24 04:14:50;;;;;;;4.73;1.30;;;15.70;99.90;;;;;;5091892;28;20187;-65
2022/10/24 04:17:16;;;;;;;6.60;1.50;;;15.70;99.90;;;;;;5091619;28;20199;-66
2022/10/24 04:19:41;;;;;;;5.77;1.10;;;15.80;99.90;;;;;;5079062;28;20177;-65
2022/10/24 04:22:07;;;;;;;6.30;1.27;;;15.80;99.90;;;;;;5071969;28;20261;-65
2022/10/24 04:24:33;;;;;;;4.47;2.17;;;15.80;99.90;;;;;;5077941;28;20188;-64
2022/10/24 04:26:59;;;;;;;9.80;1.57;;;15.80;99.90;;;;;;5091185;28;20257;-65
2022/10/24 04:29:24;;;;;;;2.90;1.50;;;15.90;99.90;;;;;;5091274;28;20983;-65
2022/10/24 04:31:50;;;;;;;4.03;1.57;;;15.90;99.90;;;;;;5091275;28;20184;-65
2022/10/24 04:34:16;;;;;;;5.60;1.53;;;15.90;99.90;;;;;;5091771;28;20180;-65
2022/10/24 04:36:41;;;;;;;7.43;1.97;;;15.90;99.90;;;;;;5091677;28;20219;-65
2022/10/24 04:39:07;;;;;;;10.93;1.43;;;15.90;99.90;;;;;;5091328;28;20446;-65
2022/10/24 04:41:32;;;;;;;3.00;1.20;;;15.90;99.90;;;;;;5091138;28;20207;-65
2022/10/24 04:43:58;;;;;;;3.17;1.33;;;15.90;99.90;;;;;;5090553;28;20191;-65
2022/10/24 04:46:24;;;;;;;4.70;1.87;;;15.80;99.90;;;;;;5080353;28;20215;-65
2022/10/24 04:48:49;;;;;;;3.53;1.27;;;15.90;99.90;;;;;;5091479;28;20215;-65
2022/10/24 04:51:15;;;;;;;6.57;1.23;;;15.90;99.90;;;;;;5085823;28;20177;-65
2022/10/24 04:53:41;;;;;;;3.33;1.50;;;16.00;99.90;;;;;;5070523;28;20539;-64
2022/10/24 04:56:07;;;;;;;4.17;1.50;;;16.00;99.90;;;;;;5091963;28;20204;-65
2022/10/24 04:58:32;;;;;;;10.97;1.27;;;16.00;99.90;;;;;;5090499;28;20177;-64
2022/10/24 05:00:58;;;;;;;4.37;1.57;;;16.10;99.90;;;;;;5095250;28;20184;-65
2022/10/24 05:03:23;;;;;;;3.30;1.73;;;16.00;99.90;;;;;;5082109;28;20180;-64
2022/10/24 05:05:49;;;;;;;2.27;1.33;;;16.10;99.90;;;;;;5095625;28;20211;-64
2022/10/24 05:08:15;;;;;;;3.60;1.90;;;16.10;99.90;;;;;;5094893;28;20260;-64
2022/10/24 05:10:41;;;;;;;9.00;1.80;;;16.10;99.90;;;;;;5089216;28;20173;-64
2022/10/24 05:13:07;;;;;;;4.50;1.53;;;16.10;99.90;;;;;;5082627;28;20426;-64
2022/10/24 05:15:32;;;;;;;4.33;1.60;;;16.00;99.90;;;;;;5089709;28;20236;-65
2022/10/24 05:17:58;;;;;;;2.90;0.93;;;16.00;99.90;;;;;;5094878;28;20203;-64
2022/10/24 05:20:24;;;;;;;3.77;1.40;;;16.00;99.90;;;;;;5091709;28;20512;-65
2022/10/24 05:22:50;;;;;;;4.13;1.23;;;15.90;99.90;;;;;;5094352;28;20448;-65
2022/10/24 05:25:16;;;;;;;15.53;2.50;;;15.90;99.90;;;;;;5094353;28;20832;-65
2022/10/24 05:27:41;;;;;;;3.10;1.17;;;15.90;99.90;;;;;;5094645;28;20216;-65
2022/10/24 05:30:08;;;;;;;1.90;1.10;;;15.80;99.90;;;;;;5095334;28;20184;-65
2022/10/24 05:32:34;;;;;;;4.47;1.90;;;15.80;99.90;;;;;;5094538;28;20191;-65
2022/10/24 05:35:00;;;;;;;6.73;1.07;;;15.70;99.90;;;;;;5094926;28;20411;-65
2022/10/24 05:37:26;;;;;;;3.23;1.00;;;15.70;99.90;;;;;;5094972;28;20528;-66
2022/10/24 05:39:51;;;;;;;2.90;1.00;;;15.60;99.90;;;;;;5095463;28;20267;-65
2022/10/24 05:42:17;;;;;;;4.53;2.40;;;15.60;99.90;;;;;;5093825;28;20261;-65
2022/10/24 05:44:43;;;;;;;10.30;1.70;;;15.60;99.90;;;;;;5089232;28;20555;-65
2022/10/24 05:47:08;;;;;;;8.33;1.17;;;15.50;99.90;;;;;;5088079;28;20196;-66
2022/10/24 05:49:34;;;;;;;5.43;1.13;;;15.50;99.90;;;;;;5095003;28;20259;-65
2022/10/24 05:52:00;;;;;;;4.00;1.87;;;15.50;99.90;;;;;;5088651;28;20292;-66
2022/10/24 05:54:26;;;;;;;3.80;1.13;;;15.50;99.90;;;;;;5094911;28;20504;-66
2022/10/24 05:56:51;;;;;;;5.33;1.87;;;15.50;99.90;;;;;;5094648;28;20188;-65
2022/10/24 05:59:17;;;;;;;2.13;1.00;;;15.50;99.90;;;;;;5095222;28;20229;-66
2022/10/24 06:01:45;;;;;;;4.67;1.53;;;15.40;99.90;;;;;;5088175;28;20634;-64
2022/10/24 06:04:11;;;;;;;4.27;1.10;;;15.30;99.90;;;;;;5085477;28;20243;-64
2022/10/24 06:06:41;;;;;;;6.90;1.30;;;15.10;99.90;;;;;;5096115;28;20977;-65
2022/10/24 06:09:07;;;;;;;10.13;2.03;;;14.90;99.90;;;;;;5099189;28;20256;-66
2022/10/24 06:11:33;;;;;;;4.83;1.13;;;14.80;99.90;;;;;;5102517;28;20505;-63
2022/10/24 06:13:59;;;;;;;13.30;1.67;;;14.60;99.90;;;;;;5101224;28;20446;-65
2022/10/24 06:16:26;;;;;;;2.47;1.00;;;14.50;99.90;;;;;;5100384;28;20507;-65
2022/10/24 06:18:52;;;;;;;4.90;1.43;;;14.40;99.90;;;;;;5099576;28;20185;-66
2022/10/24 06:21:18;;;;;;;2.13;0.80;;;14.30;99.90;;;;;;5111806;28;20410;-64
2022/10/24 06:23:44;;;;;;;10.23;1.03;;;14.30;99.90;;;;;;5117706;28;20536;-63
2022/10/24 06:26:11;;;;;;;4.80;1.80;;;14.20;99.90;;;;;;5109266;28;20416;-64
2022/10/24 06:28:37;;;;;;;2.80;1.10;;;14.20;99.90;;;;;;5098837;28;20177;-65
2022/10/24 06:31:03;;;;;;;2.57;1.70;;;14.10;99.90;;;;;;5090797;28;20902;-66
2022/10/24 06:33:30;;;;;;;4.43;1.20;;;14.10;99.90;;;;;;5085813;28;20456;-65
2022/10/24 06:36:04;;;;;;;4.00;1.83;;;14.10;99.90;;;;;;5088509;28;20269;-65
2022/10/24 06:38:30;;;;;;;3.23;1.40;;;14.10;99.90;;;;;;5093459;28;20446;-65
2022/10/24 06:40:56;;;;;;;3.73;1.57;;;14.30;99.90;;;;;;5097842;28;20430;-65
2022/10/24 06:43:21;;;;;;;3.77;1.43;;;14.10;99.90;;;;;;5098870;28;20440;-66
2022/10/24 06:45:47;;;;;;;4.10;1.20;;;14.60;99.90;;;;;;5092482;28;20274;-66
2022/10/24 06:48:13;;;;;;;8.43;1.50;;;14.70;99.90;;;;;;5103394;28;20290;-65
2022/10/24 06:50:39;;;;;;;5.97;2.00;;;14.20;99.90;;;;;;5094121;28;20549;-65
2022/10/24 06:53:08;;;;;;;4.63;1.20;;;14.40;99.90;;;;;;5099040;28;20552;-65
2022/10/24 06:55:37;;;;;;;3.67;0.87;;;14.30;99.90;;;;;;5092955;28;20426;-66
2022/10/24 06:58:05;;;;;;;2.30;1.23;;;14.30;99.90;;;;;;5093475;28;20420;-65
2022/10/24 07:00:32;;;;;;;3.33;1.97;;;14.30;99.90;;;;;;5100270;28;20428;-65
2022/10/24 07:02:58;;;;;;;16.33;1.93;;;14.40;99.90;;;;;;5074280;28;20430;-65
2022/10/24 07:05:24;;;;;;;8.83;1.57;;;14.40;99.90;;;;;;5093039;28;20425;-65
2022/10/24 07:07:49;;;;;;;2.40;1.20;;;14.30;99.90;;;;;;5092744;28;20465;-64
2022/10/24 07:10:15;;;;;;;2.73;1.33;;;14.40;99.90;;;;;;5092819;28;20187;-64
2022/10/24 07:12:41;;;;;;;6.10;2.10;;;14.40;99.90;;;;;;5091731;28;20173;-65
2022/10/24 07:15:07;;;;;;;6.27;1.90;;;14.40;99.90;;;;;;5092460;28;20696;-65
2022/10/24 07:17:43;;;;;;;2.87;1.07;;;14.40;99.90;;;;;;5092590;28;20557;-65
2022/10/24 07:20:10;;;;;;;3.13;1.37;;;14.30;99.90;;;;;;5078879;28;20192;-65
2022/10/24 07:22:36;;;;;;;1.80;0.90;;;14.30;99.90;;;;;;5099265;28;20422;-65
2022/10/24 07:25:02;;;;;;;7.30;2.03;;;14.30;99.90;;;;;;5092983;28;20505;-65
2022/10/24 07:27:28;;;;;;;5.80;1.50;;;14.30;99.90;;;;;;5101230;28;20549;-65
2022/10/24 07:29:54;;;;;;;3.83;1.97;;;14.40;99.90;;;;;;5096666;28;20501;-65
2022/10/24 07:32:20;;;;;;;2.13;1.43;;;14.40;99.90;;;;;;5095630;28;20192;-65
2022/10/24 07:34:48;;;;;;;15.23;2.30;;;14.40;99.90;;;;;;5092529;28;20207;-65
2022/10/24 07:37:15;;;;;;;6.50;2.20;;;14.40;99.90;;;;;;5092389;28;20509;-65
2022/10/24 07:39:40;;;;;;;6.90;2.40;;;14.70;99.90;;;;;;5092079;28;20418;-65
2022/10/24 07:42:06;;;;;;;5.00;1.97;;;14.40;99.90;;;;;;5089811;28;20519;-63
2022/10/24 07:44:32;;;;;;;12.43;1.60;;;14.30;99.90;;;;;;5070644;28;20177;-63
2022/10/24 07:46:57;;;;;;;1.73;1.00;;;14.60;99.90;;;;;;5083997;28;20208;-64
2022/10/24 07:49:23;;;;;;;15.67;1.90;;;14.30;99.90;;;;;;5083204;28;20291;-63
2022/10/24 07:51:48;;;;;;;9.30;2.20;;;14.30;99.90;;;;;;5087431;28;20597;-63
2022/10/24 07:54:14;;;;;;;5.00;1.47;;;14.40;99.90;;;;;;5092006;28;20210;-65
2022/10/24 07:56:40;;;;;;;6.30;2.13;;;14.40;99.90;;;;;;5091655;28;20625;-64
2022/10/24 07:59:05;;;;;;;3.20;1.47;;;14.10;99.90;;;;;;5091460;28;20655;-64
2022/10/24 08:01:31;;;;;;;2.70;1.33;;;14.10;99.90;;;;;;5091831;28;20192;-64
2022/10/24 08:03:57;;;;;;;7.17;1.87;;;14.10;99.90;;;;;;5091857;28;20250;-64
2022/10/24 08:06:29;;;;;;;5.53;1.33;;;14.10;99.90;;;;;;5092100;28;20438;-64
2022/10/24 08:08:55;;;;;;;1.90;0.87;;;14.60;99.90;;;;;;5073434;28;20227;-64
2022/10/24 08:11:24;;;;;;;10.10;2.20;;;13.90;99.90;;;;;;5092097;28;20486;-64
2022/10/24 08:13:51;;;;;;;6.27;1.43;;;13.80;99.90;;;;;;5090428;28;20430;-64
2022/10/24 08:16:19;;;;;;;5.43;1.27;;;14.70;99.90;;;;;;5092087;28;20433;-65
2022/10/24 08:18:46;;;;;;;4.10;1.83;;;13.80;99.90;;;;;;5078543;28;20475;-64
2022/10/24 08:21:13;;;;;;;8.77;1.73;;;13.90;99.90;;;;;;5073484;28;20778;-65
2022/10/24 08:23:42;;;;;;;7.00;1.70;;;13.90;99.90;;;;;;5090393;28;21218;-65
2022/10/24 08:26:09;;;;;;;7.97;1.80;;;13.90;99.90;;;;;;5092794;28;20406;-64
2022/10/24 08:28:35;;;;;;;3.90;1.50;;;14.00;99.90;;;;;;5090814;28;20415;-65
2022/10/24 08:31:22;;;;;;;1.97;1.07;;;14.10;99.90;;;;;;5085477;28;20426;-65
2022/10/24 08:33:50;;;;;;;3.83;1.53;;;14.10;99.90;;;;;;5087287;28;20208;-63
2022/10/24 08:36:26;;;;;;;3.60;1.70;;;14.90;99.90;;;;;;5095207;28;20921;-63
2022/10/24 08:38:52;;;;;;;9.60;1.40;;;14.20;99.90;;;;;;5089870;28;20900;-64
2022/10/24 08:41:45;;;;;;;4.43;1.37;;;14.30;99.90;;;;;;5104061;28;20438;-64
2022/10/24 08:44:29;;;;;;;2.00;1.13;;;14.30;99.90;;;;;;5089610;28;20210;-66
2022/10/24 08:47:17;;;;;;;6.23;1.97;;;14.30;99.90;;;;;;5087156;28;20796;-65
2022/10/24 08:49:48;;;;;;;3.87;1.33;;;14.40;99.90;;;;;;5075337;28;20425;-64
2022/10/24 08:52:29;;;;;;;4.03;1.13;;;14.40;99.90;;;;;;5080070;28;20425;-65
2022/10/24 08:54:59;;;;;;;12.73;1.63;;;14.40;99.90;;;;;;5094535;28;20413;-65
2022/10/24 08:57:30;;;;;;;5.77;1.63;;;14.40;99.90;;;;;;5094069;28;20905;-65
2022/10/24 09:00:00;;;;;;;1.63;0.70;;;15.90;99.90;;;;;;5075739;28;20426;-65
2022/10/24 09:02:30;;;;;;;2.77;1.00;;;14.40;99.90;;;;;;5094740;28;20421;-68
2022/10/24 09:05:03;;;;;;;5.97;1.53;;;14.30;99.90;;;;;;5094321;28;20425;-70
2022/10/24 09:07:29;;;;;;;10.73;0.80;;;14.30;99.90;;;;;;5096599;28;20503;-69
2022/10/24 09:10:09;;;;;;;3.03;1.40;;;14.30;99.90;;;;;;5096375;28;20758;-68
2022/10/24 09:12:35;;;;;;;2.77;1.10;;;14.40;99.90;;;;;;5092840;28;20188;-68
2022/10/24 09:15:04;;;;;;;4.60;1.03;;;14.40;99.90;;;;;;5093375;28;20417;-68
2022/10/24 09:17:35;;;;;;;5.57;1.70;;;14.50;99.90;;;;;;5075407;28;20462;-68
2022/10/24 09:20:27;;;;;;;2.40;1.27;;;14.50;99.90;;;;;;5091354;28;20434;-68
2022/10/24 09:22:57;;;;;;;3.53;1.50;;;14.50;99.90;;;;;;5086856;28;20422;-75
2022/10/24 09:25:34;;;;;;;2.40;1.10;;;14.50;99.90;;;;;;5096422;28;20922;-66
2022/10/24 09:28:04;;;;;;;1.83;0.83;;;14.40;99.90;;;;;;5077889;28;20465;-66
2022/10/24 09:30:31;;;;;;;3.00;1.10;;;14.40;99.90;;;;;;5093531;28;20480;-66
2022/10/24 09:33:01;;;;;;;2.57;1.00;;;14.40;99.90;;;;;;5074450;28;20458;-66
2022/10/24 09:35:29;;;;;;;6.20;1.50;;;14.40;99.90;;;;;;5093501;28;20410;-66
2022/10/24 09:37:58;;;;;;;26.43;1.93;;;14.40;99.90;;;;;;5092779;28;20422;-64
2022/10/24 09:40:31;;;;;;;6.87;1.33;;;14.40;99.90;;;;;;5093403;28;20815;-66
2022/10/24 09:43:16;;;;;;;6.20;1.60;;;14.40;99.90;;;;;;5091727;28;20537;-66
2022/10/24 09:45:55;;;;;;;4.63;1.77;;;14.40;99.90;;;;;;5080023;28;20502;-66
2022/10/24 09:48:52;;;;;;;10.57;2.03;;;14.40;99.90;;;;;;5092475;28;20454;-66
2022/10/24 09:51:26;;;;;;;3.50;0.93;;;14.40;99.90;;;;;;5074330;28;20428;-66
2022/10/24 09:54:17;;;;;;;7.33;1.27;;;14.50;99.90;;;;;;5092760;28;20441;-65
2022/10/24 09:56:52;;;;;;;2.80;0.90;;;14.60;99.90;;;;;;5087717;28;20995;-66
2022/10/24 09:59:30;;;;;;;8.20;1.20;;;14.60;99.90;;;;;;5079528;28;20450;-66
2022/10/24 10:02:19;;;;;;;2.23;0.90;;;;;;;;;;5092121;28;20414;-66
2022/10/24 10:04:48;;;;;;;2.27;0.90;;;14.90;99.90;;;;;;5084751;28;20437;-67
2022/10/24 10:07:24;;;;;;;2.63;1.03;;;14.90;99.90;;;;;;5092490;28;20462;-66
2022/10/24 10:09:53;;;;;;;3.50;1.43;;;14.90;99.90;;;;;;5091196;28;20420;-66
2022/10/24 10:12:46;;;;;;;2.97;1.20;;;15.00;99.90;;;;;;5091419;28;20422;-66
2022/10/24 10:15:23;;;;;;;8.63;1.40;;;;;;;;;;5088174;28;20462;-66
2022/10/24 10:17:54;;;;;;;5.23;1.83;;;15.00;99.90;;;;;;5092793;28;20433;-66
2022/10/24 10:20:28;;;;;;;2.77;1.20;;;15.00;99.90;;;;;;5079538;28;20453;-66
2022/10/24 10:22:53;;;;;;;5.80;1.23;;;;;;;;;;5091832;28;20426;-66
2022/10/24 10:25:30;;;;;;;2.03;0.80;;;15.00;99.90;;;;;;5095114;28;20405;-66
2022/10/24 10:27:57;;;;;;;2.03;1.00;;;15.00;99.90;;;;;;5088093;28;20477;-65
2022/10/24 10:30:23;;;;;;;3.30;1.50;;;15.00;99.90;;;;;;5091990;28;20418;-66
2022/10/24 10:33:07;;;;;;;1.83;0.73;;;15.10;99.90;;;;;;5091560;28;20468;-66
2022/10/24 10:35:33;;;;;;;4.73;1.07;;;;;;;;;;5092077;28;20208;-66
2022/10/24 10:38:16;;;;;;;2.57;0.97;;;15.00;99.90;;;;;;5091829;28;20442;-65
2022/10/24 10:41:02;;;;;;;5.00;1.10;;;15.00;99.90;;;;;;5091500;28;20418;-66
2022/10/24 10:43:36;;;;;;;5.33;1.00;;;15.00;99.90;;;;;;5084709;28;20588;-66
2022/10/24 10:46:12;;;;;;;1.47;0.70;;;15.00;99.90;;;;;;5079655;28;20457;-66
2022/10/24 10:49:01;;;;;;;9.33;1.03;;;15.00;99.90;;;;;;5090971;28;20473;-66
2022/10/24 10:51:34;;;;;;;2.20;0.80;;;14.90;99.90;;;;;;5074776;28;20429;-66
2022/10/24 10:54:15;;;;;;;4.13;1.00;;;15.20;99.90;;;;;;5091055;28;20426;-66
2022/10/24 10:56:50;;;;;;;3.77;1.37;;;14.90;99.90;;;;;;5089695;28;20426;-66
2022/10/24 10:59:35;;;;;;;8.50;1.00;;;14.90;99.90;;;;;;5088529;28;20436;-66
2022/10/24 11:02:31;;;;;;;5.03;1.23;;;14.90;99.90;;;;;;5086603;28;20454;-66
2022/10/24 11:05:33;;;;;;;5.83;0.97;;;15.00;99.90;;;;;;5090165;28;20415;-65
2022/10/24 11:08:10;;;;;;;1.47;0.63;;;15.00;99.90;;;;;;5091048;28;20771;-66
2022/10/24 11:10:45;;;;;;;3.57;0.80;;;14.90;99.90;;;;;;5077217;28;20456;-65
2022/10/24 11:13:18;;;;;;;11.27;0.83;;;15.10;99.90;;;;;;5089684;28;20525;-65
2022/10/24 11:15:49;;;;;;;2.27;1.00;;;14.90;99.90;;;;;;5090735;28;20414;-66
2022/10/24 11:18:17;;;;;;;2.23;0.63;;;14.90;99.90;;;;;;5090397;28;20422;-66
2022/10/24 11:20:54;;;;;;;2.90;0.93;;;15.40;99.90;;;;;;5087742;28;20449;-64
2022/10/24 11:23:19;;;;;;;1.30;0.60;;;14.90;99.90;;;;;;5089221;28;20513;-64
2022/10/24 11:25:52;;;;;;;2.13;0.70;;;14.90;99.90;;;;;;5095648;28;20507;-64
2022/10/24 11:28:24;;;;;;;1.50;0.70;;;17.10;99.90;;;;;;5090339;28;20215;-65
2022/10/24 11:30:58;;;;;;;1.83;1.00;;;14.90;99.90;;;;;;5091501;28;20778;-65
2022/10/24 11:33:34;;;;;;;1.47;0.63;;;14.90;99.90;;;;;;5091327;28;20508;-65
2022/10/24 11:36:11;;;;;;;1.60;0.77;;;15.00;99.90;;;;;;5091371;28;20429;-65
2022/10/24 11:38:45;;;;;;;2.40;0.80;;;15.00;99.90;;;;;;5091045;28;20421;-65
2022/10/24 11:41:36;;;;;;;4.40;0.60;;;15.00;99.90;;;;;;5090933;28;20425;-65
2022/10/24 11:44:16;;;;;;;3.13;0.90;;;15.00;99.90;;;;;;5086177;28;20414;-65
2022/10/24 11:46:48;;;;;;;3.20;0.83;;;15.10;99.90;;;;;;5083239;28;20465;-65
2022/10/24 11:49:28;;;;;;;2.43;0.87;;;15.10;99.90;;;;;;5093975;28;20521;-65
2022/10/24 11:52:03;;;;;;;2.40;0.93;;;15.10;99.90;;;;;;5090899;28;20403;-66
2022/10/24 11:54:46;;;;;;;5.10;0.90;;;15.20;99.90;;;;;;5100841;28;20469;-66
2022/10/24 11:57:19;;;;;;;2.40;0.93;;;15.10;99.90;;;;;;5108746;28;20414;-65
2022/10/24 11:59:44;;;;;;;3.83;1.20;;;15.10;99.90;;;;;;5111516;28;20414;-65
2022/10/24 12:02:29;;;;;;;7.23;1.60;;;15.10;99.90;;;;;;5098030;28;20416;-65
2022/10/24 12:05:10;;;;;;;1.80;0.80;;;15.10;99.90;;;;;;5099424;28;20188;-66
2022/10/24 12:07:35;;;;;;;1.20;0.50;;;15.20;99.90;;;;;;5086933;28;20548;-66
2022/10/24 12:10:37;;;;;;;1.40;0.60;;;;;;;;;;5077703;28;20501;-66
2022/10/24 12:13:22;;;;;;;4.37;1.00;;;15.10;99.90;;;;;;5006872;28;20229;-66
2022/10/24 12:16:21;;;;;;;2.40;0.63;;;15.10;99.90;;;;;;5075715;28;20480;-64
2022/10/24 12:18:50;;;;;;;2.03;0.80;;;15.10;99.90;;;;;;5090816;28;20812;-64
2022/10/24 12:21:24;;;;;;;5.77;1.13;;;15.10;99.90;;;;;;5087435;28;20414;-64
2022/10/24 12:23:58;;;;;;;1.50;0.70;;;15.10;99.90;;;;;;5071428;28;20747;-64
2022/10/24 12:26:32;;;;;;;1.30;0.60;;;15.10;99.90;;;;;;5090305;28;20458;-64
2022/10/24 12:29:03;;;;;;;1.93;0.70;;;15.10;99.90;;;;;;5089848;28;20407;-64
2022/10/24 12:31:31;;;;;;;1.80;0.60;;;15.10;99.90;;;;;;5090005;28;21088;-64
2022/10/24 12:34:14;;;;;;;2.17;0.77;;;15.10;99.90;;;;;;5090305;28;20426;-64
2022/10/24 12:37:10;;;;;;;2.07;0.70;;;15.10;99.90;;;;;;5090163;28;20453;-65
2022/10/24 12:39:40;;;;;;;3.20;0.80;;;15.20;99.90;;;;;;5085247;28;20429;-65
2022/10/24 12:42:13;;;;;;;1.43;0.57;;;15.20;99.90;;;;;;5086488;28;20453;-68
2022/10/24 12:44:41;;;;;;;1.97;0.60;;;15.20;99.90;;;;;;5072170;28;20786;-67
2022/10/24 12:47:27;;;;;;;3.30;0.77;;;15.20;99.90;;;;;;5083827;28;20501;-67
2022/10/24 12:49:53;;;;;;;2.37;0.90;;;15.20;99.90;;;;;;5090497;28;20917;-67
2022/10/24 12:52:31;;;;;;;2.07;0.60;;;15.20;99.90;;;;;;5088565;28;20766;-67
2022/10/24 12:54:57;;;;;;;1.20;0.50;;;;;;;;;;5067942;28;20410;-68
2022/10/24 12:57:27;;;;;;;1.83;0.70;;;;;;;;;;5082504;28;20974;-67
2022/10/24 12:59:59;;;;;;;1.20;0.50;;;15.50;99.90;;;;;;5089933;28;20941;-66
2022/10/24 13:02:25;;;;;;;1.50;0.60;;;;;;;;;;5089392;28;20440;-66
2022/10/24 13:05:16;;;;;;;4.40;1.23;;;15.50;99.90;;;;;;5092556;28;21138;-66
2022/10/24 13:07:56;;;;;;;3.00;0.73;;;15.60;99.90;;;;;;5086974;28;20461;-67